createdAt,value
2017-11-29T00:00:42.765Z,24.50
2017-11-29T00:03:10.971Z,28.90
2017-11-29T00:05:38.386Z,29.70
2017-11-29T00:08:05.817Z,27.70
2017-11-29T00:10:33.254Z,27.00
2017-11-29T00:13:01.504Z,29.67
2017-11-29T00:15:28.907Z,31.40
2017-11-29T00:17:57.128Z,28.50
2017-11-29T00:20:24.607Z,30.50
2017-11-29T00:22:52.056Z,26.00
2017-11-29T00:25:19.527Z,28.80
2017-11-29T00:27:46.950Z,27.90
2017-11-29T00:30:14.363Z,39.53
2017-11-29T00:32:41.839Z,23.80
2017-11-29T00:35:09.278Z,30.37
2017-11-29T00:37:37.460Z,31.90
2017-11-29T00:40:05.659Z,27.17
2017-11-29T00:42:33.086Z,25.63
2017-11-29T00:45:00.514Z,27.83
2017-11-29T00:47:27.976Z,25.70
2017-11-29T00:49:55.395Z,30.70
2017-11-29T00:52:22.920Z,22.70
2017-11-29T00:54:50.340Z,27.10
2017-11-29T00:57:17.758Z,24.07
2017-11-29T00:59:45.176Z,26.60
2017-11-29T01:02:12.669Z,26.70
2017-11-29T01:04:40.855Z,23.60
2017-11-29T01:07:09.056Z,20.90
2017-11-29T01:09:37.257Z,26.63
2017-11-29T01:12:04.672Z,30.97
2017-11-29T01:14:32.202Z,23.10
2017-11-29T01:16:59.651Z,26.33
2017-11-29T01:19:27.134Z,21.83
2017-11-29T01:21:54.548Z,28.50
2017-11-29T01:24:21.959Z,28.53
2017-11-29T01:26:49.383Z,31.87
2017-11-29T01:29:16.901Z,27.77
2017-11-29T01:31:44.316Z,28.40
2017-11-29T01:34:11.730Z,23.57
2017-11-29T01:36:39.231Z,27.83
2017-11-29T01:39:06.674Z,23.83
2017-11-29T01:41:34.107Z,26.83
2017-11-29T01:44:02.300Z,29.10
2017-11-29T01:46:30.512Z,25.83
2017-11-29T01:48:57.984Z,23.73
2017-11-29T01:51:26.149Z,26.03
2017-11-29T01:53:54.324Z,26.00
2017-11-29T01:56:22.535Z,28.17
2017-11-29T01:58:50.003Z,30.57
2017-11-29T02:01:17.422Z,23.23
2017-11-29T02:03:44.844Z,25.03
2017-11-29T02:06:24.035Z,25.40
2017-11-29T02:08:51.451Z,24.93
2017-11-29T02:11:18.887Z,21.03
2017-11-29T02:13:47.083Z,23.50
2017-11-29T02:16:15.290Z,20.13
2017-11-29T02:18:43.466Z,22.70
2017-11-29T02:21:10.892Z,24.10
2017-11-29T02:23:38.326Z,22.77
2017-11-29T02:26:05.737Z,23.20
2017-11-29T02:28:33.933Z,20.40
2017-11-29T02:31:02.150Z,30.77
2017-11-29T02:33:30.355Z,21.97
2017-11-29T02:35:57.764Z,28.63
2017-11-29T02:38:25.951Z,20.07
2017-11-29T02:41:05.269Z,19.97
2017-11-29T02:43:32.681Z,25.07
2017-11-29T02:46:00.876Z,20.30
2017-11-29T02:48:28.372Z,21.40
2017-11-29T02:50:55.781Z,23.23
2017-11-29T02:53:23.205Z,17.70
2017-11-29T02:55:50.619Z,24.07
2017-11-29T02:58:18.037Z,25.33
2017-11-29T03:00:45.460Z,28.40
2017-11-29T03:03:14.404Z,21.37
2017-11-29T03:05:41.837Z,25.97
2017-11-29T03:08:09.354Z,24.50
2017-11-29T03:10:36.788Z,32.27
2017-11-29T03:13:04.968Z,22.63
2017-11-29T03:15:33.215Z,20.37
2017-11-29T03:18:00.612Z,21.57
2017-11-29T03:20:28.015Z,21.70
2017-11-29T03:22:55.445Z,22.60
2017-11-29T03:25:22.852Z,25.23
2017-11-29T03:27:50.252Z,19.77
2017-11-29T03:30:17.657Z,30.03
2017-11-29T03:32:45.903Z,22.70
2017-11-29T03:35:13.361Z,22.93
2017-11-29T03:37:40.815Z,25.57
2017-11-29T03:40:08.289Z,25.83
2017-11-29T03:42:35.711Z,24.30
2017-11-29T03:45:03.247Z,28.77
2017-11-29T03:47:30.655Z,25.03
2017-11-29T03:49:58.080Z,23.00
2017-11-29T03:52:25.479Z,25.37
2017-11-29T03:54:52.895Z,20.93
2017-11-29T03:57:20.381Z,27.00
2017-11-29T03:59:47.793Z,26.23
2017-11-29T04:02:15.294Z,30.67
2017-11-29T04:04:42.704Z,28.03
2017-11-29T04:07:10.112Z,28.57
2017-11-29T04:09:38.330Z,35.40
2017-11-29T04:12:05.742Z,25.33
2017-11-29T04:14:34.707Z,21.63
2017-11-29T04:17:02.138Z,21.10
2017-11-29T04:19:30.309Z,23.93
2017-11-29T04:21:57.724Z,21.10
2017-11-29T04:24:25.139Z,19.97
2017-11-29T04:26:52.652Z,23.80
2017-11-29T04:29:20.072Z,23.43
2017-11-29T04:31:47.588Z,27.50
2017-11-29T04:34:15.002Z,24.17
2017-11-29T04:36:42.427Z,26.17
2017-11-29T04:39:09.887Z,26.67
2017-11-29T04:41:37.379Z,25.00
2017-11-29T04:44:04.813Z,26.57
2017-11-29T04:46:33.032Z,23.40
2017-11-29T04:49:00.444Z,23.00
2017-11-29T04:51:27.864Z,22.57
2017-11-29T04:53:55.269Z,27.23
2017-11-29T04:56:22.680Z,21.70
2017-11-29T04:58:50.108Z,24.60
2017-11-29T05:01:17.619Z,26.33
2017-11-29T05:03:45.027Z,30.83
2017-11-29T05:06:12.486Z,26.63
2017-11-29T05:08:39.868Z,25.97
2017-11-29T05:11:07.306Z,27.97
2017-11-29T05:13:34.743Z,24.80
2017-11-29T05:16:02.935Z,31.13
2017-11-29T05:18:31.109Z,19.00
2017-11-29T05:20:59.311Z,20.50
2017-11-29T05:23:26.777Z,21.13
2017-11-29T05:25:54.168Z,18.67
2017-11-29T05:28:21.623Z,26.37
2017-11-29T05:30:49.034Z,21.60
2017-11-29T05:33:16.481Z,20.73
2017-11-29T05:35:43.868Z,20.97
2017-11-29T05:38:11.276Z,32.13
2017-11-29T05:40:39.597Z,25.97
2017-11-29T05:43:07.011Z,25.30
2017-11-29T05:45:34.434Z,22.13
2017-11-29T05:48:01.897Z,24.67
2017-11-29T05:50:29.317Z,23.90
2017-11-29T05:52:56.824Z,23.20
2017-11-29T05:55:24.218Z,26.60
2017-11-29T05:57:51.635Z,24.40
2017-11-29T06:00:19.853Z,28.50
2017-11-29T06:02:47.419Z,20.67
2017-11-29T06:05:14.838Z,33.40
2017-11-29T06:07:42.259Z,27.10
2017-11-29T06:10:09.701Z,33.03
2017-11-29T06:12:37.893Z,25.87
2017-11-29T06:15:06.091Z,29.17
2017-11-29T06:17:33.533Z,26.87
2017-11-29T06:20:01.728Z,24.77
2017-11-29T06:22:29.899Z,24.90
2017-11-29T06:24:57.418Z,24.63
2017-11-29T06:27:24.815Z,29.10
2017-11-29T06:29:52.249Z,36.30
2017-11-29T06:32:19.684Z,27.37
2017-11-29T06:34:47.869Z,35.70
2017-11-29T06:37:16.085Z,30.60
2017-11-29T06:39:44.248Z,25.27
2017-11-29T06:42:12.419Z,27.87
2017-11-29T06:44:40.600Z,26.13
2017-11-29T06:47:08.110Z,24.03
2017-11-29T06:49:35.540Z,42.13
2017-11-29T06:52:03.170Z,22.37
2017-11-29T06:54:30.611Z,27.60
2017-11-29T06:56:58.084Z,25.20
2017-11-29T06:59:25.496Z,30.47
2017-11-29T07:01:52.903Z,31.07
2017-11-29T07:04:21.080Z,28.27
2017-11-29T07:06:49.301Z,27.93
2017-11-29T07:09:16.704Z,35.97
2017-11-29T07:11:44.135Z,30.27
2017-11-29T07:14:11.531Z,33.87
2017-11-29T07:16:38.950Z,37.03
2017-11-29T07:19:07.198Z,27.97
2017-11-29T07:21:34.622Z,30.77
2017-11-29T07:24:02.034Z,29.73
2017-11-29T07:26:29.456Z,34.23
2017-11-29T07:28:56.873Z,28.30
2017-11-29T07:31:24.305Z,38.27
2017-11-29T07:33:51.766Z,32.00
2017-11-29T07:36:19.197Z,30.37
2017-11-29T07:38:46.587Z,27.13
2017-11-29T07:41:14.767Z,24.07
2017-11-29T07:43:42.254Z,35.43
2017-11-29T07:46:09.660Z,36.08
2017-11-29T07:48:37.215Z,35.08
2017-11-29T07:51:04.636Z,34.53
2017-11-29T07:53:32.855Z,30.95
2017-11-29T07:56:00.310Z,34.63
2017-11-29T07:58:27.750Z,30.90
2017-11-29T08:00:55.942Z,27.13
2017-11-29T08:03:23.361Z,28.33
2017-11-29T08:05:50.808Z,31.45
2017-11-29T08:08:18.208Z,26.58
2017-11-29T08:10:45.649Z,37.40
2017-11-29T08:13:13.067Z,28.23
2017-11-29T08:15:41.296Z,37.80
2017-11-29T08:18:08.836Z,30.77
2017-11-29T08:20:37.024Z,31.05
2017-11-29T08:23:05.225Z,27.83
2017-11-29T08:25:32.707Z,29.83
2017-11-29T08:28:00.884Z,31.33
2017-11-29T08:30:28.338Z,30.13
2017-11-29T08:32:57.204Z,29.83
2017-11-29T08:35:24.631Z,24.97
2017-11-29T08:37:52.044Z,25.80
2017-11-29T08:40:19.535Z,26.97
2017-11-29T08:42:48.468Z,27.33
2017-11-29T08:45:16.632Z,23.73
2017-11-29T08:47:44.852Z,33.90
2017-11-29T08:50:12.243Z,30.13
2017-11-29T08:52:39.786Z,25.20
2017-11-29T08:55:07.186Z,25.53
2017-11-29T08:57:34.667Z,23.63
2017-11-29T09:00:02.311Z,30.23
2017-11-29T09:02:29.742Z,27.67
2017-11-29T09:04:57.217Z,22.37
2017-11-29T09:07:24.630Z,23.83
2017-11-29T09:09:52.095Z,22.90
2017-11-29T09:12:19.492Z,29.90
2017-11-29T09:14:46.907Z,26.03
2017-11-29T09:17:14.310Z,28.43
2017-11-29T09:19:41.744Z,20.17
2017-11-29T09:22:09.213Z,34.13
2017-11-29T09:24:36.648Z,26.70
2017-11-29T09:27:06.051Z,28.62
2017-11-29T09:29:33.465Z,24.63
2017-11-29T09:32:00.923Z,31.90
2017-11-29T09:34:28.388Z,22.90
2017-11-29T09:36:55.791Z,31.57
2017-11-29T09:39:23.508Z,31.20
2017-11-29T09:41:51.709Z,25.30
2017-11-29T09:44:19.148Z,27.92
2017-11-29T09:46:47.325Z,28.13
2017-11-29T09:49:15.507Z,27.60
2017-11-29T09:51:42.933Z,23.77
2017-11-29T09:54:10.359Z,22.15
2017-11-29T09:56:38.567Z,25.05
2017-11-29T09:59:06.060Z,26.20
2017-11-29T10:01:33.517Z,25.55
2017-11-29T10:04:00.940Z,27.35
2017-11-29T10:06:28.358Z,26.77
2017-11-29T10:08:55.769Z,20.90
2017-11-29T10:11:23.185Z,24.83
2017-11-29T10:13:50.711Z,25.43
2017-11-29T10:16:18.117Z,27.77
2017-11-29T10:18:45.537Z,25.70
2017-11-29T10:21:12.972Z,25.73
2017-11-29T10:23:40.527Z,23.93
2017-11-29T10:26:07.938Z,19.05
2017-11-29T10:28:35.471Z,28.75
2017-11-29T10:31:03.464Z,24.95
2017-11-29T10:33:30.873Z,21.67
2017-11-29T10:35:58.280Z,18.47
2017-11-29T10:38:25.752Z,26.20
2017-11-29T10:40:53.223Z,22.40
2017-11-29T10:43:20.612Z,26.17
2017-11-29T10:45:48.037Z,25.27
2017-11-29T10:48:16.255Z,27.63
2017-11-29T10:50:43.656Z,23.77
2017-11-29T10:53:11.085Z,24.47
2017-11-29T10:55:38.501Z,19.10
2017-11-29T10:58:05.953Z,18.27
2017-11-29T11:00:33.339Z,19.73
2017-11-29T11:03:00.773Z,21.93
2017-11-29T11:05:28.197Z,22.20
2017-11-29T11:07:56.405Z,20.50
2017-11-29T11:10:23.815Z,19.07
2017-11-29T11:12:51.228Z,20.27
2017-11-29T11:15:18.645Z,17.70
2017-11-29T11:17:46.061Z,17.07
2017-11-29T11:20:14.261Z,13.63
2017-11-29T11:22:41.744Z,14.80
2017-11-29T11:25:09.146Z,47.67
2017-11-29T11:27:36.579Z,15.50
2017-11-29T11:30:03.995Z,15.77
2017-11-29T11:32:32.933Z,24.20
2017-11-29T11:35:00.351Z,19.90
2017-11-29T11:37:27.898Z,17.00
2017-11-29T11:39:55.312Z,28.13
2017-11-29T11:42:23.505Z,26.97
2017-11-29T11:44:51.712Z,18.83
2017-11-29T11:47:19.123Z,19.27
2017-11-29T11:49:46.536Z,19.40
2017-11-29T11:52:14.714Z,20.77
2017-11-29T11:54:42.920Z,22.57
2017-11-29T11:57:10.336Z,18.70
2017-11-29T11:59:37.871Z,22.97
2017-11-29T12:02:05.284Z,17.50
2017-11-29T12:04:32.715Z,15.80
2017-11-29T12:07:00.145Z,17.47
2017-11-29T12:09:28.330Z,17.10
2017-11-29T12:11:56.506Z,17.53
2017-11-29T12:14:24.693Z,16.43
2017-11-29T12:16:52.922Z,23.83
2017-11-29T12:19:20.386Z,19.30
2017-11-29T12:21:47.856Z,11.30
2017-11-29T12:24:15.312Z,13.73
2017-11-29T12:26:42.719Z,13.33
2017-11-29T12:29:10.138Z,12.17
2017-11-29T12:31:38.325Z,15.13
2017-11-29T12:34:06.537Z,13.30
2017-11-29T12:36:33.960Z,11.57
2017-11-29T12:39:02.156Z,12.53
2017-11-29T12:41:30.337Z,14.20
2017-11-29T12:43:58.553Z,14.13
2017-11-29T12:46:25.951Z,16.70
2017-11-29T12:49:05.375Z,13.20
2017-11-29T12:51:32.796Z,12.47
2017-11-29T12:54:00.199Z,14.63
2017-11-29T12:56:27.619Z,13.07
2017-11-29T12:58:55.030Z,12.23
2017-11-29T13:01:22.471Z,13.33
2017-11-29T13:03:49.938Z,14.50
2017-11-29T13:06:17.402Z,15.87
2017-11-29T13:08:44.812Z,16.63
2017-11-29T13:11:12.290Z,17.53
2017-11-29T13:13:39.695Z,13.40
2017-11-29T13:16:07.120Z,12.23
2017-11-29T13:18:34.552Z,11.10
2017-11-29T13:21:01.965Z,11.50
2017-11-29T13:23:29.379Z,11.00
2017-11-29T13:25:56.887Z,11.70
2017-11-29T13:28:24.315Z,13.23
2017-11-29T13:30:51.733Z,13.20
2017-11-29T13:33:19.216Z,15.03
2017-11-29T13:35:46.669Z,15.20
2017-11-29T13:38:14.136Z,14.03
2017-11-29T13:40:41.566Z,10.67
2017-11-29T13:43:08.980Z,13.60
2017-11-29T13:45:36.423Z,14.70
2017-11-29T13:48:03.856Z,18.83
2017-11-29T13:50:31.388Z,13.83
2017-11-29T13:52:58.847Z,13.00
2017-11-29T13:55:26.408Z,16.63
2017-11-29T13:57:53.827Z,15.90
2017-11-29T14:00:21.239Z,18.87
2017-11-29T14:02:48.655Z,15.77
2017-11-29T14:05:16.183Z,14.60
2017-11-29T14:07:43.664Z,22.23
2017-11-29T14:10:11.097Z,15.60
2017-11-29T14:12:38.504Z,18.90
2017-11-29T14:15:05.915Z,21.27
2017-11-29T14:17:33.354Z,16.23
2017-11-29T14:20:00.794Z,17.30
2017-11-29T14:22:28.242Z,16.93
2017-11-29T14:24:56.432Z,15.73
2017-11-29T14:27:24.594Z,21.43
2017-11-29T14:29:52.103Z,18.00
2017-11-29T14:32:19.516Z,31.67
2017-11-29T14:34:46.973Z,17.43
2017-11-29T14:37:14.412Z,16.50
2017-11-29T14:39:41.840Z,17.03
2017-11-29T14:42:09.254Z,22.30
2017-11-29T14:44:36.688Z,16.77
2017-11-29T14:47:04.105Z,19.57
2017-11-29T14:49:31.564Z,20.50
2017-11-29T14:51:59.027Z,16.30
2017-11-29T14:54:26.501Z,22.33
2017-11-29T14:56:53.896Z,22.17
2017-11-29T14:59:21.328Z,22.23
2017-11-29T15:01:48.740Z,23.37
2017-11-29T15:04:16.161Z,21.53
2017-11-29T15:06:43.601Z,22.93
2017-11-29T15:09:11.113Z,21.80
2017-11-29T15:11:40.131Z,24.17
2017-11-29T15:14:07.536Z,21.10
2017-11-29T15:16:35.712Z,19.20
2017-11-29T15:19:03.146Z,23.50
2017-11-29T15:21:30.583Z,23.40
2017-11-29T15:23:58.748Z,21.17
2017-11-29T15:26:26.263Z,25.63
2017-11-29T15:28:53.667Z,29.43
2017-11-29T15:31:21.297Z,27.00
2017-11-29T15:33:48.752Z,23.27
2017-11-29T15:36:16.169Z,23.47
2017-11-29T15:38:43.584Z,22.53
2017-11-29T15:41:11.004Z,28.00
2017-11-29T15:43:38.427Z,27.27
2017-11-29T15:46:05.951Z,26.47
2017-11-29T15:48:33.384Z,26.30
2017-11-29T15:51:00.795Z,23.00
2017-11-29T15:53:28.219Z,24.50
2017-11-29T15:55:55.678Z,22.95
2017-11-29T15:58:23.103Z,25.13
2017-11-29T16:00:50.549Z,27.87
2017-11-29T16:03:17.969Z,30.00
2017-11-29T16:05:45.433Z,21.70
2017-11-29T16:08:13.612Z,23.37
2017-11-29T16:10:41.792Z,24.43
2017-11-29T16:13:10.012Z,21.50
2017-11-29T16:15:38.182Z,27.40
2017-11-29T16:18:05.605Z,24.40
2017-11-29T16:20:33.060Z,22.27
2017-11-29T16:23:00.612Z,27.40
2017-11-29T16:25:28.071Z,25.58
2017-11-29T16:27:55.515Z,30.30
2017-11-29T16:30:23.709Z,30.92
2017-11-29T16:32:51.880Z,26.63
2017-11-29T16:35:20.070Z,24.10
2017-11-29T16:37:48.248Z,27.52
2017-11-29T16:40:15.669Z,30.50
2017-11-29T16:42:43.096Z,31.05
2017-11-29T16:45:11.282Z,31.77
2017-11-29T16:47:39.506Z,35.53
2017-11-29T16:50:06.947Z,32.50
2017-11-29T16:52:35.127Z,32.72
2017-11-29T16:55:02.618Z,32.75
2017-11-29T16:57:30.034Z,34.40
2017-11-29T16:59:57.431Z,35.72
2017-11-29T17:02:25.020Z,36.08
2017-11-29T17:04:52.448Z,39.92
2017-11-29T17:07:19.882Z,52.53
2017-11-29T17:09:47.320Z,61.97
2017-11-29T17:12:14.742Z,58.05
2017-11-29T17:14:42.184Z,56.75
2017-11-29T17:17:09.605Z,56.08
2017-11-29T17:19:37.784Z,58.17
2017-11-29T17:22:06.008Z,62.40
2017-11-29T17:24:33.468Z,57.78
2017-11-29T17:27:00.896Z,54.22
2017-11-29T17:29:28.324Z,59.22
2017-11-29T17:31:55.783Z,69.05
2017-11-29T17:34:23.244Z,58.78
2017-11-29T17:36:50.663Z,57.65
2017-11-29T17:39:18.091Z,66.22
2017-11-29T17:41:45.558Z,61.75
2017-11-29T17:44:13.015Z,62.35
2017-11-29T17:46:40.484Z,62.47
2017-11-29T17:49:07.913Z,68.72
2017-11-29T17:51:35.329Z,67.97
2017-11-29T17:54:02.792Z,60.88
2017-11-29T17:56:30.272Z,71.05
2017-11-29T17:58:57.731Z,73.10
2017-11-29T18:01:25.138Z,72.37
2017-11-29T18:03:52.563Z,69.80
2017-11-29T18:06:20.144Z,74.90
2017-11-29T18:08:48.529Z,80.20
2017-11-29T18:11:15.995Z,80.82
2017-11-29T18:13:43.403Z,81.30
2017-11-29T18:16:10.820Z,78.78
2017-11-29T18:18:38.405Z,85.12
2017-11-29T18:21:05.867Z,94.70
2017-11-29T18:23:33.279Z,81.43
2017-11-29T18:26:00.695Z,78.37
2017-11-29T18:28:28.122Z,88.28
2017-11-29T18:30:55.646Z,92.62
2017-11-29T18:33:23.055Z,86.82
2017-11-29T18:35:50.480Z,87.55
2017-11-29T18:38:17.913Z,92.20
2017-11-29T18:40:45.426Z,77.00
2017-11-29T18:43:12.827Z,90.53
2017-11-29T18:45:40.241Z,98.20
2017-11-29T18:48:07.728Z,93.65
2017-11-29T18:50:35.145Z,90.82
2017-11-29T18:53:04.123Z,89.00
2017-11-29T18:55:31.556Z,94.90
2017-11-29T18:57:59.019Z,102.07
2017-11-29T19:00:26.447Z,98.85
2017-11-29T19:02:54.631Z,105.60
2017-11-29T19:05:22.048Z,93.95
2017-11-29T19:07:49.516Z,99.85
2017-11-29T19:10:17.003Z,109.95
2017-11-29T19:12:44.392Z,100.40
2017-11-29T19:15:11.836Z,96.07
2017-11-29T19:17:39.244Z,97.85
2017-11-29T19:20:06.685Z,98.10
2017-11-29T19:22:34.093Z,95.82
2017-11-29T19:25:01.504Z,96.35
2017-11-29T19:27:28.917Z,94.45
2017-11-29T19:29:56.344Z,100.90
2017-11-29T19:32:23.815Z,102.07
2017-11-29T19:34:51.216Z,100.22
2017-11-29T19:37:18.675Z,96.85
2017-11-29T19:39:46.098Z,96.53
2017-11-29T19:42:13.522Z,103.47
2017-11-29T19:44:40.975Z,103.47
2017-11-29T19:47:08.412Z,97.30
2017-11-29T19:49:36.093Z,101.07
2017-11-29T19:52:03.492Z,110.82
2017-11-29T19:54:30.915Z,111.43
2017-11-29T19:56:58.363Z,103.75
2017-11-29T19:59:26.584Z,103.15
2017-11-29T20:01:54.000Z,112.18
2017-11-29T20:04:21.502Z,109.68
2017-11-29T20:06:48.929Z,98.78
2017-11-29T20:09:16.337Z,97.55
2017-11-29T20:11:43.779Z,107.60
2017-11-29T20:14:11.213Z,92.78
2017-11-29T20:16:38.655Z,94.60
2017-11-29T20:19:06.089Z,97.47
2017-11-29T20:21:33.550Z,105.40
2017-11-29T20:24:00.952Z,93.20
2017-11-29T20:26:28.428Z,107.20
2017-11-29T20:28:55.863Z,93.78
2017-11-29T20:31:24.091Z,98.57
2017-11-29T20:33:51.513Z,94.62
2017-11-29T20:36:19.687Z,100.60
2017-11-29T20:38:47.099Z,98.50
2017-11-29T20:41:14.528Z,85.82
2017-11-29T20:43:41.960Z,98.12
2017-11-29T20:46:09.405Z,116.57
2017-11-29T20:48:36.828Z,91.30
2017-11-29T20:51:05.797Z,101.75
2017-11-29T20:53:33.208Z,96.75
2017-11-29T20:56:01.395Z,94.22
2017-11-29T20:58:28.827Z,101.70
2017-11-29T21:00:56.244Z,102.45
2017-11-29T21:03:24.438Z,97.45
2017-11-29T21:05:52.637Z,91.57
2017-11-29T21:08:20.039Z,92.50
2017-11-29T21:10:47.470Z,92.65
2017-11-29T21:13:14.980Z,91.68
2017-11-29T21:15:42.413Z,98.18
2017-11-29T21:18:09.821Z,94.50
2017-11-29T21:20:37.252Z,89.00
2017-11-29T21:23:04.682Z,88.37
2017-11-29T21:25:32.900Z,92.45
2017-11-29T21:28:00.342Z,102.35
2017-11-29T21:30:28.520Z,88.32
2017-11-29T21:32:56.733Z,84.18
2017-11-29T21:35:24.894Z,88.40
2017-11-29T21:37:52.346Z,87.75
2017-11-29T21:40:19.744Z,90.15
2017-11-29T21:42:47.944Z,86.97
2017-11-29T21:45:15.367Z,90.05
2017-11-29T21:47:42.780Z,100.75
2017-11-29T21:50:10.213Z,84.40
2017-11-29T21:52:37.723Z,84.78
2017-11-29T21:55:05.140Z,88.70
2017-11-29T21:57:32.596Z,90.53
2017-11-29T22:00:00.031Z,80.32
2017-11-29T22:02:27.506Z,82.72
2017-11-29T22:04:55.001Z,86.55
2017-11-29T22:07:22.401Z,83.30
2017-11-29T22:09:49.823Z,87.15
2017-11-29T22:12:17.230Z,88.78
2017-11-29T22:14:44.633Z,96.28
2017-11-29T22:17:12.216Z,89.35
2017-11-29T22:19:39.685Z,99.78
2017-11-29T22:22:07.874Z,96.25
2017-11-29T22:24:35.337Z,100.53
2017-11-29T22:27:02.760Z,102.78
2017-11-29T22:29:30.984Z,104.65
2017-11-29T22:31:58.402Z,110.25
2017-11-29T22:34:25.823Z,102.15
2017-11-29T22:36:53.240Z,104.97
2017-11-29T22:39:20.687Z,99.93
2017-11-29T22:41:48.164Z,98.25
2017-11-29T22:44:15.585Z,97.72
2017-11-29T22:46:43.064Z,95.22
2017-11-29T22:49:10.472Z,94.32
2017-11-29T22:51:37.894Z,92.97
2017-11-29T22:54:06.085Z,106.40
2017-11-29T22:56:33.508Z,93.15
2017-11-29T22:59:00.912Z,94.55
2017-11-29T23:01:28.333Z,96.25
2017-11-29T23:03:55.771Z,96.93
2017-11-29T23:06:23.163Z,89.25
2017-11-29T23:08:50.624Z,92.60
2017-11-29T23:11:18.769Z,80.18
2017-11-29T23:13:46.963Z,89.85
2017-11-29T23:16:14.392Z,85.10
2017-11-29T23:18:42.334Z,78.15
2017-11-29T23:21:09.748Z,86.10
2017-11-29T23:23:37.173Z,86.68
2017-11-29T23:26:04.596Z,82.07
2017-11-29T23:28:32.769Z,84.55
2017-11-29T23:31:00.184Z,84.97
2017-11-29T23:33:27.632Z,85.93
2017-11-29T23:35:55.069Z,80.35
2017-11-29T23:38:22.480Z,80.43
2017-11-29T23:40:49.889Z,82.93
2017-11-29T23:43:17.315Z,76.22
2017-11-29T23:45:44.745Z,76.03
2017-11-29T23:48:17.883Z,83.25
2017-11-29T23:50:45.352Z,73.30
2017-11-29T23:53:12.772Z,73.60
2017-11-29T23:55:40.292Z,78.07
2017-11-29T23:58:07.767Z,79.50
